sensor_id;sensor_type;location;lat;lon;timestamp;P1;durP1;ratioP1;P2;durP2;ratioP2
22622;SDS011;11478;51.094;7.030;2024-02-15T00:01:41;17.90;;;7.68;;
22622;SDS011;11478;51.094;7.030;2024-02-15T00:04:07;14.98;;;7.30;;
22622;SDS011;11478;51.094;7.030;2024-02-15T00:06:35;10.43;;;7.40;;
22622;SDS011;11478;51.094;7.030;2024-02-15T00:09:01;17.58;;;8.18;;
22622;SDS011;11478;51.094;7.030;2024-02-15T00:11:27;16.88;;;7.60;;
22622;SDS011;11478;51.094;7.030;2024-02-15T00:13:53;18.98;;;8.20;;
22622;SDS011;11478;51.094;7.030;2024-02-15T00:16:21;16.63;;;8.30;;
22622;SDS011;11478;51.094;7.030;2024-02-15T00:18:47;17.00;;;7.43;;
22622;SDS011;11478;51.094;7.030;2024-02-15T00:21:14;21.17;;;7.63;;
22622;SDS011;11478;51.094;7.030;2024-02-15T00:23:43;13.50;;;7.72;;
22622;SDS011;11478;51.094;7.030;2024-02-15T00:26:09;14.15;;;7.88;;
22622;SDS011;11478;51.094;7.030;2024-02-15T00:28:37;16.27;;;7.97;;
22622;SDS011;11478;51.094;7.030;2024-02-15T00:31:04;15.75;;;7.60;;
22622;SDS011;11478;51.094;7.030;2024-02-15T00:33:30;16.83;;;8.10;;
22622;SDS011;11478;51.094;7.030;2024-02-15T00:35:57;27.45;;;8.70;;
22622;SDS011;11478;51.094;7.030;2024-02-15T00:38:23;16.25;;;7.95;;
22622;SDS011;11478;51.094;7.030;2024-02-15T00:40:58;16.63;;;8.07;;
22622;SDS011;11478;51.094;7.030;2024-02-15T00:43:24;11.00;;;7.10;;
22622;SDS011;11478;51.094;7.030;2024-02-15T00:45:52;16.70;;;7.07;;
22622;SDS011;11478;51.094;7.030;2024-02-15T00:48:17;13.18;;;7.45;;
22622;SDS011;11478;51.094;7.030;2024-02-15T00:50:44;20.73;;;8.00;;
22622;SDS011;11478;51.094;7.030;2024-02-15T00:53:09;13.55;;;8.10;;
22622;SDS011;11478;51.094;7.030;2024-02-15T00:55:36;21.67;;;8.75;;
22622;SDS011;11478;51.094;7.030;2024-02-15T00:58:02;15.57;;;8.50;;
22622;SDS011;11478;51.094;7.030;2024-02-15T01:00:28;16.95;;;8.77;;
22622;SDS011;11478;51.094;7.030;2024-02-15T01:02:55;23.88;;;8.85;;
22622;SDS011;11478;51.094;7.030;2024-02-15T01:05:21;14.10;;;8.20;;
22622;SDS011;11478;51.094;7.030;2024-02-15T01:07:49;25.90;;;9.68;;
22622;SDS011;11478;51.094;7.030;2024-02-15T01:10:16;13.40;;;8.38;;
22622;SDS011;11478;51.094;7.030;2024-02-15T01:12:42;17.77;;;9.52;;
22622;SDS011;11478;51.094;7.030;2024-02-15T01:15:09;21.52;;;9.75;;
22622;SDS011;11478;51.094;7.030;2024-02-15T01:17:35;18.35;;;9.32;;
22622;SDS011;11478;51.094;7.030;2024-02-15T01:20:01;19.77;;;9.38;;
22622;SDS011;11478;51.094;7.030;2024-02-15T01:22:27;20.50;;;9.20;;
22622;SDS011;11478;51.094;7.030;2024-02-15T01:24:59;17.33;;;8.52;;
22622;SDS011;11478;51.094;7.030;2024-02-15T01:27:25;16.70;;;9.65;;
22622;SDS011;11478;51.094;7.030;2024-02-15T01:29:56;21.42;;;9.63;;
22622;SDS011;11478;51.094;7.030;2024-02-15T01:32:22;27.33;;;10.07;;
22622;SDS011;11478;51.094;7.030;2024-02-15T01:34:48;20.10;;;9.43;;
22622;SDS011;11478;51.094;7.030;2024-02-15T01:37:16;23.67;;;10.05;;
22622;SDS011;11478;51.094;7.030;2024-02-15T01:39:42;20.98;;;9.95;;
22622;SDS011;11478;51.094;7.030;2024-02-15T01:42:08;16.95;;;8.73;;
22622;SDS011;11478;51.094;7.030;2024-02-15T01:44:34;20.95;;;9.85;;
22622;SDS011;11478;51.094;7.030;2024-02-15T01:47:02;20.17;;;9.63;;
22622;SDS011;11478;51.094;7.030;2024-02-15T01:49:29;26.73;;;10.90;;
22622;SDS011;11478;51.094;7.030;2024-02-15T01:51:56;21.15;;;9.73;;
22622;SDS011;11478;51.094;7.030;2024-02-15T01:54:25;22.25;;;10.15;;
22622;SDS011;11478;51.094;7.030;2024-02-15T01:56:51;21.15;;;9.80;;
22622;SDS011;11478;51.094;7.030;2024-02-15T01:59:18;22.00;;;10.20;;
22622;SDS011;11478;51.094;7.030;2024-02-15T02:01:47;22.65;;;10.77;;
22622;SDS011;11478;51.094;7.030;2024-02-15T02:04:13;20.92;;;10.07;;
22622;SDS011;11478;51.094;7.030;2024-02-15T02:06:39;29.17;;;10.95;;
22622;SDS011;11478;51.094;7.030;2024-02-15T02:09:06;23.75;;;10.65;;
22622;SDS011;11478;51.094;7.030;2024-02-15T02:11:41;22.85;;;11.10;;
22622;SDS011;11478;51.094;7.030;2024-02-15T02:14:11;21.90;;;11.15;;
22622;SDS011;11478;51.094;7.030;2024-02-15T02:16:37;18.95;;;10.85;;
22622;SDS011;11478;51.094;7.030;2024-02-15T02:19:04;20.63;;;12.07;;
22622;SDS011;11478;51.094;7.030;2024-02-15T02:21:36;24.67;;;11.52;;
22622;SDS011;11478;51.094;7.030;2024-02-15T02:24:03;21.70;;;11.98;;
22622;SDS011;11478;51.094;7.030;2024-02-15T02:26:42;22.15;;;11.07;;
22622;SDS011;11478;51.094;7.030;2024-02-15T02:29:08;25.58;;;11.27;;
22622;SDS011;11478;51.094;7.030;2024-02-15T02:31:38;20.10;;;11.38;;
22622;SDS011;11478;51.094;7.030;2024-02-15T02:34:04;19.90;;;10.98;;
22622;SDS011;11478;51.094;7.030;2024-02-15T02:36:33;22.60;;;11.32;;
22622;SDS011;11478;51.094;7.030;2024-02-15T02:38:59;17.60;;;10.23;;
22622;SDS011;11478;51.094;7.030;2024-02-15T02:41:27;19.58;;;10.70;;
22622;SDS011;11478;51.094;7.030;2024-02-15T02:43:54;20.80;;;10.68;;
22622;SDS011;11478;51.094;7.030;2024-02-15T02:46:23;21.80;;;10.77;;
22622;SDS011;11478;51.094;7.030;2024-02-15T02:48:49;26.60;;;10.80;;
22622;SDS011;11478;51.094;7.030;2024-02-15T02:51:16;25.50;;;12.10;;
22622;SDS011;11478;51.094;7.030;2024-02-15T02:53:42;22.65;;;11.45;;
22622;SDS011;11478;51.094;7.030;2024-02-15T02:56:09;18.65;;;10.65;;
22622;SDS011;11478;51.094;7.030;2024-02-15T02:58:35;28.08;;;11.85;;
22622;SDS011;11478;51.094;7.030;2024-02-15T03:01:01;22.20;;;11.40;;
22622;SDS011;11478;51.094;7.030;2024-02-15T03:03:27;24.20;;;10.82;;
22622;SDS011;11478;51.094;7.030;2024-02-15T03:05:54;24.58;;;11.05;;
22622;SDS011;11478;51.094;7.030;2024-02-15T03:08:20;23.98;;;12.07;;
22622;SDS011;11478;51.094;7.030;2024-02-15T03:10:47;28.75;;;12.05;;
22622;SDS011;11478;51.094;7.030;2024-02-15T03:13:13;21.02;;;10.80;;
22622;SDS011;11478;51.094;7.030;2024-02-15T03:15:39;26.08;;;11.57;;
22622;SDS011;11478;51.094;7.030;2024-02-15T03:18:08;25.33;;;11.63;;
22622;SDS011;11478;51.094;7.030;2024-02-15T03:20:36;28.65;;;11.77;;
22622;SDS011;11478;51.094;7.030;2024-02-15T03:23:02;22.35;;;10.63;;
22622;SDS011;11478;51.094;7.030;2024-02-15T03:25:28;22.08;;;10.82;;
22622;SDS011;11478;51.094;7.030;2024-02-15T03:27:56;25.23;;;11.57;;
22622;SDS011;11478;51.094;7.030;2024-02-15T03:30:24;21.13;;;9.88;;
22622;SDS011;11478;51.094;7.030;2024-02-15T03:32:53;22.27;;;10.23;;
22622;SDS011;11478;51.094;7.030;2024-02-15T03:35:20;23.27;;;10.63;;
22622;SDS011;11478;51.094;7.030;2024-02-15T03:37:52;21.88;;;10.35;;
22622;SDS011;11478;51.094;7.030;2024-02-15T03:40:21;20.38;;;10.15;;
22622;SDS011;11478;51.094;7.030;2024-02-15T03:42:53;20.08;;;10.63;;
22622;SDS011;11478;51.094;7.030;2024-02-15T03:45:19;20.90;;;10.30;;
22622;SDS011;11478;51.094;7.030;2024-02-15T03:47:46;21.20;;;10.38;;
22622;SDS011;11478;51.094;7.030;2024-02-15T03:50:12;29.98;;;10.57;;
22622;SDS011;11478;51.094;7.030;2024-02-15T03:52:40;25.58;;;10.68;;
22622;SDS011;11478;51.094;7.030;2024-02-15T03:55:06;20.98;;;11.00;;
22622;SDS011;11478;51.094;7.030;2024-02-15T03:57:32;18.23;;;10.20;;
22622;SDS011;11478;51.094;7.030;2024-02-15T03:59:58;21.42;;;9.95;;
22622;SDS011;11478;51.094;7.030;2024-02-15T04:02:25;19.55;;;9.80;;
22622;SDS011;11478;51.094;7.030;2024-02-15T04:04:52;21.63;;;9.70;;
22622;SDS011;11478;51.094;7.030;2024-02-15T04:07:26;22.50;;;9.60;;
22622;SDS011;11478;51.094;7.030;2024-02-15T04:09:52;22.00;;;13.32;;
22622;SDS011;11478;51.094;7.030;2024-02-15T04:12:18;20.83;;;9.52;;
22622;SDS011;11478;51.094;7.030;2024-02-15T04:14:44;17.08;;;8.48;;
22622;SDS011;11478;51.094;7.030;2024-02-15T04:17:11;21.67;;;9.73;;
22622;SDS011;11478;51.094;7.030;2024-02-15T04:19:43;19.70;;;9.27;;
22622;SDS011;11478;51.094;7.030;2024-02-15T04:22:11;29.50;;;11.02;;
22622;SDS011;11478;51.094;7.030;2024-02-15T04:24:38;25.48;;;9.75;;
22622;SDS011;11478;51.094;7.030;2024-02-15T04:27:08;26.23;;;9.73;;
22622;SDS011;11478;51.094;7.030;2024-02-15T04:29:38;16.48;;;9.32;;
22622;SDS011;11478;51.094;7.030;2024-02-15T04:32:09;21.02;;;9.82;;
22622;SDS011;11478;51.094;7.030;2024-02-15T04:34:38;15.30;;;9.00;;
22622;SDS011;11478;51.094;7.030;2024-02-15T04:37:04;21.00;;;8.73;;
22622;SDS011;11478;51.094;7.030;2024-02-15T04:39:34;20.60;;;8.77;;
22622;SDS011;11478;51.094;7.030;2024-02-15T04:42:01;17.70;;;7.82;;
22622;SDS011;11478;51.094;7.030;2024-02-15T04:44:39;17.63;;;8.73;;
22622;SDS011;11478;51.094;7.030;2024-02-15T04:47:06;15.93;;;8.32;;
22622;SDS011;11478;51.094;7.030;2024-02-15T04:49:32;18.38;;;8.40;;
22622;SDS011;11478;51.094;7.030;2024-02-15T04:52:00;16.50;;;8.32;;
22622;SDS011;11478;51.094;7.030;2024-02-15T04:54:29;17.55;;;8.07;;
22622;SDS011;11478;51.094;7.030;2024-02-15T04:56:56;17.65;;;8.55;;
22622;SDS011;11478;51.094;7.030;2024-02-15T04:59:22;20.60;;;9.02;;
22622;SDS011;11478;51.094;7.030;2024-02-15T05:01:53;15.73;;;8.60;;
22622;SDS011;11478;51.094;7.030;2024-02-15T05:04:18;16.25;;;8.02;;
22622;SDS011;11478;51.094;7.030;2024-02-15T05:06:51;18.38;;;8.55;;
22622;SDS011;11478;51.094;7.030;2024-02-15T05:09:17;14.73;;;8.00;;
22622;SDS011;11478;51.094;7.030;2024-02-15T05:11:45;15.95;;;7.85;;
22622;SDS011;11478;51.094;7.030;2024-02-15T05:14:15;18.85;;;8.15;;
22622;SDS011;11478;51.094;7.030;2024-02-15T05:16:46;17.93;;;8.40;;
22622;SDS011;11478;51.094;7.030;2024-02-15T05:19:16;20.25;;;8.93;;
22622;SDS011;11478;51.094;7.030;2024-02-15T05:21:46;17.38;;;8.15;;
22622;SDS011;11478;51.094;7.030;2024-02-15T05:24:15;16.23;;;8.20;;
22622;SDS011;11478;51.094;7.030;2024-02-15T05:26:44;21.52;;;8.45;;
22622;SDS011;11478;51.094;7.030;2024-02-15T05:29:17;21.02;;;8.52;;
22622;SDS011;11478;51.094;7.030;2024-02-15T05:31:47;21.55;;;7.82;;
22622;SDS011;11478;51.094;7.030;2024-02-15T05:34:15;20.15;;;8.30;;
22622;SDS011;11478;51.094;7.030;2024-02-15T05:36:42;19.02;;;7.47;;
22622;SDS011;11478;51.094;7.030;2024-02-15T05:39:08;15.85;;;7.13;;
22622;SDS011;11478;51.094;7.030;2024-02-15T05:41:36;28.08;;;10.15;;
22622;SDS011;11478;51.094;7.030;2024-02-15T05:44:02;15.80;;;7.78;;
22622;SDS011;11478;51.094;7.030;2024-02-15T05:46:32;18.48;;;7.40;;
22622;SDS011;11478;51.094;7.030;2024-02-15T05:48:59;16.02;;;7.13;;
22622;SDS011;11478;51.094;7.030;2024-02-15T05:51:27;13.68;;;7.10;;
22622;SDS011;11478;51.094;7.030;2024-02-15T05:53:53;11.77;;;6.93;;
22622;SDS011;11478;51.094;7.030;2024-02-15T05:56:23;15.35;;;7.10;;
22622;SDS011;11478;51.094;7.030;2024-02-15T05:58:58;21.58;;;7.57;;
22622;SDS011;11478;51.094;7.030;2024-02-15T06:01:24;19.83;;;7.85;;
22622;SDS011;11478;51.094;7.030;2024-02-15T06:03:50;12.38;;;7.25;;
22622;SDS011;11478;51.094;7.030;2024-02-15T06:06:20;18.50;;;8.18;;
22622;SDS011;11478;51.094;7.030;2024-02-15T06:08:46;21.90;;;7.97;;
22622;SDS011;11478;51.094;7.030;2024-02-15T06:11:18;21.08;;;7.40;;
22622;SDS011;11478;51.094;7.030;2024-02-15T06:13:45;20.15;;;7.72;;
22622;SDS011;11478;51.094;7.030;2024-02-15T06:16:11;15.88;;;7.47;;
22622;SDS011;11478;51.094;7.030;2024-02-15T06:18:37;14.82;;;8.10;;
22622;SDS011;11478;51.094;7.030;2024-02-15T06:21:03;17.73;;;7.45;;
22622;SDS011;11478;51.094;7.030;2024-02-15T06:25:59;18.60;;;8.60;;
22622;SDS011;11478;51.094;7.030;2024-02-15T06:28:27;15.02;;;7.90;;
22622;SDS011;11478;51.094;7.030;2024-02-15T06:31:12;16.13;;;7.80;;
22622;SDS011;11478;51.094;7.030;2024-02-15T06:33:59;15.38;;;7.82;;
22622;SDS011;11478;51.094;7.030;2024-02-15T06:36:52;18.30;;;7.88;;
22622;SDS011;11478;51.094;7.030;2024-02-15T06:39:36;19.00;;;8.95;;
22622;SDS011;11478;51.094;7.030;2024-02-15T06:42:11;16.55;;;7.80;;
22622;SDS011;11478;51.094;7.030;2024-02-15T06:44:43;14.68;;;7.53;;
22622;SDS011;11478;51.094;7.030;2024-02-15T06:47:10;17.75;;;8.07;;
22622;SDS011;11478;51.094;7.030;2024-02-15T06:49:39;17.88;;;8.50;;
22622;SDS011;11478;51.094;7.030;2024-02-15T06:52:12;16.17;;;7.78;;
22622;SDS011;11478;51.094;7.030;2024-02-15T06:54:38;18.48;;;8.00;;
22622;SDS011;11478;51.094;7.030;2024-02-15T06:57:05;24.05;;;8.50;;
22622;SDS011;11478;51.094;7.030;2024-02-15T06:59:31;21.80;;;7.63;;
22622;SDS011;11478;51.094;7.030;2024-02-15T07:01:58;14.75;;;8.02;;
22622;SDS011;11478;51.094;7.030;2024-02-15T07:04:24;14.90;;;8.10;;
22622;SDS011;11478;51.094;7.030;2024-02-15T07:06:53;13.50;;;7.38;;
22622;SDS011;11478;51.094;7.030;2024-02-15T07:09:22;15.52;;;7.03;;
22622;SDS011;11478;51.094;7.030;2024-02-15T07:11:51;16.17;;;7.90;;
22622;SDS011;11478;51.094;7.030;2024-02-15T07:14:17;13.13;;;7.47;;
22622;SDS011;11478;51.094;7.030;2024-02-15T07:16:48;19.48;;;7.70;;
22622;SDS011;11478;51.094;7.030;2024-02-15T07:19:14;15.30;;;8.00;;
22622;SDS011;11478;51.094;7.030;2024-02-15T07:21:41;15.75;;;8.07;;
22622;SDS011;11478;51.094;7.030;2024-02-15T07:24:08;17.35;;;6.90;;
22622;SDS011;11478;51.094;7.030;2024-02-15T07:26:37;21.00;;;8.00;;
22622;SDS011;11478;51.094;7.030;2024-02-15T07:29:07;15.55;;;6.88;;
22622;SDS011;11478;51.094;7.030;2024-02-15T07:31:33;17.80;;;6.70;;
22622;SDS011;11478;51.094;7.030;2024-02-15T07:33:59;15.15;;;6.57;;
22622;SDS011;11478;51.094;7.030;2024-02-15T07:36:27;14.60;;;6.40;;
22622;SDS011;11478;51.094;7.030;2024-02-15T07:38:54;19.67;;;5.80;;
22622;SDS011;11478;51.094;7.030;2024-02-15T07:43:56;18.60;;;6.20;;
22622;SDS011;11478;51.094;7.030;2024-02-15T07:46:25;11.65;;;5.68;;
22622;SDS011;11478;51.094;7.030;2024-02-15T07:48:51;12.18;;;5.50;;
22622;SDS011;11478;51.094;7.030;2024-02-15T07:51:17;14.90;;;5.50;;
22622;SDS011;11478;51.094;7.030;2024-02-15T07:53:47;14.20;;;5.18;;
22622;SDS011;11478;51.094;7.030;2024-02-15T07:56:16;13.57;;;5.20;;
22622;SDS011;11478;51.094;7.030;2024-02-15T07:58:44;17.05;;;4.78;;
22622;SDS011;11478;51.094;7.030;2024-02-15T08:01:15;11.85;;;4.75;;
22622;SDS011;11478;51.094;7.030;2024-02-15T08:03:41;10.52;;;4.50;;
22622;SDS011;11478;51.094;7.030;2024-02-15T08:06:18;16.60;;;4.90;;
22622;SDS011;11478;51.094;7.030;2024-02-15T08:08:46;15.75;;;4.53;;
22622;SDS011;11478;51.094;7.030;2024-02-15T08:11:15;14.70;;;4.60;;
22622;SDS011;11478;51.094;7.030;2024-02-15T08:16:13;10.80;;;4.90;;
22622;SDS011;11478;51.094;7.030;2024-02-15T08:18:43;13.13;;;5.13;;
22622;SDS011;11478;51.094;7.030;2024-02-15T08:21:09;13.98;;;4.80;;
22622;SDS011;11478;51.094;7.030;2024-02-15T08:23:42;9.70;;;4.63;;
22622;SDS011;11478;51.094;7.030;2024-02-15T08:26:08;16.17;;;4.70;;
22622;SDS011;11478;51.094;7.030;2024-02-15T08:28:37;9.13;;;4.65;;
22622;SDS011;11478;51.094;7.030;2024-02-15T08:31:03;12.43;;;4.53;;
22622;SDS011;11478;51.094;7.030;2024-02-15T08:33:29;10.98;;;4.18;;
22622;SDS011;11478;51.094;7.030;2024-02-15T08:35:55;8.52;;;4.03;;
22622;SDS011;11478;51.094;7.030;2024-02-15T08:38:24;13.60;;;4.10;;
22622;SDS011;11478;51.094;7.030;2024-02-15T08:40:52;8.77;;;4.50;;
22622;SDS011;11478;51.094;7.030;2024-02-15T08:43:18;11.68;;;4.43;;
22622;SDS011;11478;51.094;7.030;2024-02-15T08:45:44;10.95;;;4.60;;
22622;SDS011;11478;51.094;7.030;2024-02-15T08:48:11;14.30;;;4.13;;
22622;SDS011;11478;51.094;7.030;2024-02-15T08:50:38;11.30;;;4.07;;
22622;SDS011;11478;51.094;7.030;2024-02-15T08:53:07;7.93;;;3.70;;
22622;SDS011;11478;51.094;7.030;2024-02-15T08:55:33;9.88;;;4.45;;
22622;SDS011;11478;51.094;7.030;2024-02-15T08:58:01;14.27;;;5.18;;
22622;SDS011;11478;51.094;7.030;2024-02-15T09:00:28;14.05;;;4.55;;
22622;SDS011;11478;51.094;7.030;2024-02-15T09:02:54;16.15;;;4.38;;
22622;SDS011;11478;51.094;7.030;2024-02-15T09:05:22;10.98;;;4.00;;
22622;SDS011;11478;51.094;7.030;2024-02-15T09:07:49;7.03;;;3.78;;
22622;SDS011;11478;51.094;7.030;2024-02-15T09:10:19;12.70;;;3.70;;
22622;SDS011;11478;51.094;7.030;2024-02-15T09:12:52;8.80;;;3.85;;
22622;SDS011;11478;51.094;7.030;2024-02-15T09:15:20;11.13;;;3.22;;
22622;SDS011;11478;51.094;7.030;2024-02-15T09:17:47;7.97;;;3.20;;
22622;SDS011;11478;51.094;7.030;2024-02-15T09:20:15;12.50;;;3.92;;
22622;SDS011;11478;51.094;7.030;2024-02-15T09:22:47;9.73;;;3.50;;
22622;SDS011;11478;51.094;7.030;2024-02-15T09:25:14;10.20;;;3.92;;
22622;SDS011;11478;51.094;7.030;2024-02-15T09:27:40;9.63;;;3.90;;
22622;SDS011;11478;51.094;7.030;2024-02-15T09:30:07;10.85;;;3.88;;
22622;SDS011;11478;51.094;7.030;2024-02-15T09:32:35;12.27;;;3.30;;
22622;SDS011;11478;51.094;7.030;2024-02-15T09:37:35;9.95;;;3.67;;
22622;SDS011;11478;51.094;7.030;2024-02-15T09:40:08;15.75;;;4.72;;
22622;SDS011;11478;51.094;7.030;2024-02-15T09:42:35;15.27;;;7.20;;
22622;SDS011;11478;51.094;7.030;2024-02-15T09:45:01;10.82;;;3.83;;
22622;SDS011;11478;51.094;7.030;2024-02-15T09:47:30;14.30;;;3.92;;
22622;SDS011;11478;51.094;7.030;2024-02-15T09:50:01;8.15;;;3.72;;
22622;SDS011;11478;51.094;7.030;2024-02-15T09:52:28;7.20;;;3.50;;
22622;SDS011;11478;51.094;7.030;2024-02-15T09:54:57;8.55;;;3.40;;
22622;SDS011;11478;51.094;7.030;2024-02-15T09:57:26;11.52;;;3.60;;
22622;SDS011;11478;51.094;7.030;2024-02-15T10:00:01;10.60;;;3.33;;
22622;SDS011;11478;51.094;7.030;2024-02-15T10:02:28;14.18;;;3.70;;
22622;SDS011;11478;51.094;7.030;2024-02-15T10:04:58;7.63;;;3.22;;
22622;SDS011;11478;51.094;7.030;2024-02-15T10:07:24;14.25;;;3.42;;
22622;SDS011;11478;51.094;7.030;2024-02-15T10:09:52;7.18;;;3.13;;
22622;SDS011;11478;51.094;7.030;2024-02-15T10:15:01;14.77;;;3.47;;
22622;SDS011;11478;51.094;7.030;2024-02-15T10:17:31;10.05;;;3.25;;
22622;SDS011;11478;51.094;7.030;2024-02-15T10:20:03;13.02;;;3.15;;
22622;SDS011;11478;51.094;7.030;2024-02-15T10:22:30;10.93;;;2.95;;
22622;SDS011;11478;51.094;7.030;2024-02-15T10:25:12;12.63;;;3.22;;
22622;SDS011;11478;51.094;7.030;2024-02-15T10:27:40;10.05;;;2.72;;
22622;SDS011;11478;51.094;7.030;2024-02-15T10:30:18;7.05;;;2.67;;
22622;SDS011;11478;51.094;7.030;2024-02-15T10:32:49;7.05;;;2.35;;
22622;SDS011;11478;51.094;7.030;2024-02-15T10:35:21;8.10;;;2.55;;
22622;SDS011;11478;51.094;7.030;2024-02-15T10:37:47;7.68;;;2.10;;
22622;SDS011;11478;51.094;7.030;2024-02-15T10:40:18;9.48;;;3.05;;
22622;SDS011;11478;51.094;7.030;2024-02-15T10:42:48;9.52;;;3.53;;
22622;SDS011;11478;51.094;7.030;2024-02-15T10:45:17;7.75;;;2.53;;
22622;SDS011;11478;51.094;7.030;2024-02-15T10:47:46;7.45;;;2.20;;
22622;SDS011;11478;51.094;7.030;2024-02-15T10:50:13;6.82;;;1.88;;
22622;SDS011;11478;51.094;7.030;2024-02-15T10:52:43;5.95;;;2.42;;
22622;SDS011;11478;51.094;7.030;2024-02-15T10:58:19;5.43;;;1.98;;
22622;SDS011;11478;51.094;7.030;2024-02-15T11:00:49;12.13;;;2.67;;
22622;SDS011;11478;51.094;7.030;2024-02-15T11:03:19;6.25;;;2.00;;
22622;SDS011;11478;51.094;7.030;2024-02-15T11:05:54;7.28;;;2.40;;
22622;SDS011;11478;51.094;7.030;2024-02-15T11:08:26;7.85;;;2.28;;
22622;SDS011;11478;51.094;7.030;2024-02-15T11:10:52;6.70;;;2.03;;
22622;SDS011;11478;51.094;7.030;2024-02-15T11:13:21;6.72;;;2.22;;
22622;SDS011;11478;51.094;7.030;2024-02-15T11:15:47;6.85;;;2.50;;
22622;SDS011;11478;51.094;7.030;2024-02-15T11:21:17;8.20;;;2.35;;
22622;SDS011;11478;51.094;7.030;2024-02-15T11:23:46;10.15;;;3.08;;
22622;SDS011;11478;51.094;7.030;2024-02-15T11:40:22;8.38;;;2.50;;
22622;SDS011;11478;51.094;7.030;2024-02-15T11:42:54;8.00;;;2.05;;
22622;SDS011;11478;51.094;7.030;2024-02-15T11:45:32;7.05;;;2.40;;
22622;SDS011;11478;51.094;7.030;2024-02-15T11:48:02;9.02;;;2.50;;
22622;SDS011;11478;51.094;7.030;2024-02-15T11:50:34;6.78;;;2.13;;
22622;SDS011;11478;51.094;7.030;2024-02-15T11:53:12;6.18;;;1.92;;
22622;SDS011;11478;51.094;7.030;2024-02-15T11:55:39;6.50;;;2.28;;
22622;SDS011;11478;51.094;7.030;2024-02-15T11:58:10;8.27;;;2.03;;
22622;SDS011;11478;51.094;7.030;2024-02-15T12:01:21;7.60;;;2.22;;
22622;SDS011;11478;51.094;7.030;2024-02-15T12:04:12;5.60;;;2.17;;
22622;SDS011;11478;51.094;7.030;2024-02-15T12:13:53;9.07;;;2.05;;
22622;SDS011;11478;51.094;7.030;2024-02-15T12:16:37;4.47;;;1.77;;
22622;SDS011;11478;51.094;7.030;2024-02-15T12:19:22;5.55;;;1.60;;
22622;SDS011;11478;51.094;7.030;2024-02-15T12:21:52;6.68;;;1.88;;
22622;SDS011;11478;51.094;7.030;2024-02-15T12:24:22;6.20;;;1.90;;
22622;SDS011;11478;51.094;7.030;2024-02-15T12:26:52;4.60;;;1.80;;
22622;SDS011;11478;51.094;7.030;2024-02-15T12:29:26;7.85;;;2.17;;
22622;SDS011;11478;51.094;7.030;2024-02-15T12:31:54;5.57;;;2.00;;
22622;SDS011;11478;51.094;7.030;2024-02-15T12:34:21;5.70;;;2.20;;
22622;SDS011;11478;51.094;7.030;2024-02-15T12:39:44;5.55;;;1.85;;
22622;SDS011;11478;51.094;7.030;2024-02-15T12:42:19;4.95;;;1.88;;
22622;SDS011;11478;51.094;7.030;2024-02-15T12:44:47;9.02;;;2.00;;
22622;SDS011;11478;51.094;7.030;2024-02-15T12:47:20;12.80;;;3.10;;
22622;SDS011;11478;51.094;7.030;2024-02-15T12:49:50;8.50;;;2.10;;
22622;SDS011;11478;51.094;7.030;2024-02-15T12:57:45;5.53;;;2.60;;
22622;SDS011;11478;51.094;7.030;2024-02-15T13:00:19;6.32;;;2.38;;
22622;SDS011;11478;51.094;7.030;2024-02-15T13:03:04;5.25;;;2.08;;
22622;SDS011;11478;51.094;7.030;2024-02-15T13:05:34;7.93;;;2.20;;
22622;SDS011;11478;51.094;7.030;2024-02-15T13:08:03;7.97;;;2.25;;
22622;SDS011;11478;51.094;7.030;2024-02-15T13:13:05;8.50;;;2.13;;
22622;SDS011;11478;51.094;7.030;2024-02-15T13:15:35;6.07;;;1.95;;
22622;SDS011;11478;51.094;7.030;2024-02-15T13:18:02;6.47;;;2.33;;
22622;SDS011;11478;51.094;7.030;2024-02-15T13:20:34;9.13;;;2.35;;
22622;SDS011;11478;51.094;7.030;2024-02-15T13:23:03;6.38;;;2.13;;
22622;SDS011;11478;51.094;7.030;2024-02-15T13:25:50;5.82;;;2.00;;
22622;SDS011;11478;51.094;7.030;2024-02-15T13:28:26;7.53;;;2.00;;
22622;SDS011;11478;51.094;7.030;2024-02-15T13:30:52;8.02;;;2.38;;
22622;SDS011;11478;51.094;7.030;2024-02-15T13:33:21;6.88;;;2.10;;
22622;SDS011;11478;51.094;7.030;2024-02-15T13:35:47;5.75;;;1.90;;
22622;SDS011;11478;51.094;7.030;2024-02-15T13:38:14;5.00;;;2.45;;
22622;SDS011;11478;51.094;7.030;2024-02-15T13:40:49;5.82;;;2.08;;
22622;SDS011;11478;51.094;7.030;2024-02-15T13:43:17;8.30;;;2.58;;
22622;SDS011;11478;51.094;7.030;2024-02-15T13:45:44;7.28;;;2.30;;
22622;SDS011;11478;51.094;7.030;2024-02-15T13:48:27;15.60;;;5.30;;
22622;SDS011;11478;51.094;7.030;2024-02-15T13:50:55;8.23;;;2.25;;
22622;SDS011;11478;51.094;7.030;2024-02-15T13:53:22;7.22;;;2.33;;
22622;SDS011;11478;51.094;7.030;2024-02-15T13:55:48;4.07;;;1.60;;
22622;SDS011;11478;51.094;7.030;2024-02-15T13:58:17;4.95;;;2.08;;
22622;SDS011;11478;51.094;7.030;2024-02-15T14:03:40;4.93;;;1.70;;
22622;SDS011;11478;51.094;7.030;2024-02-15T14:06:09;4.45;;;1.88;;
22622;SDS011;11478;51.094;7.030;2024-02-15T14:08:38;10.20;;;3.53;;
22622;SDS011;11478;51.094;7.030;2024-02-15T14:11:10;6.82;;;3.20;;
22622;SDS011;11478;51.094;7.030;2024-02-15T14:13:36;10.00;;;3.63;;
22622;SDS011;11478;51.094;7.030;2024-02-15T14:16:05;6.53;;;2.15;;
22622;SDS011;11478;51.094;7.030;2024-02-15T14:18:36;6.32;;;1.90;;
22622;SDS011;11478;51.094;7.030;2024-02-15T14:21:05;4.32;;;2.05;;
22622;SDS011;11478;51.094;7.030;2024-02-15T14:23:38;4.32;;;1.83;;
22622;SDS011;11478;51.094;7.030;2024-02-15T14:26:05;5.75;;;1.75;;
22622;SDS011;11478;51.094;7.030;2024-02-15T14:28:34;6.53;;;2.03;;
22622;SDS011;11478;51.094;7.030;2024-02-15T14:31:13;5.25;;;1.65;;
22622;SDS011;11478;51.094;7.030;2024-02-15T14:34:01;8.38;;;2.92;;
22622;SDS011;11478;51.094;7.030;2024-02-15T14:39:27;8.00;;;2.70;;
22622;SDS011;11478;51.094;7.030;2024-02-15T14:41:55;3.70;;;1.55;;
22622;SDS011;11478;51.094;7.030;2024-02-15T14:44:21;3.47;;;1.70;;
22622;SDS011;11478;51.094;7.030;2024-02-15T14:46:49;5.00;;;1.95;;
22622;SDS011;11478;51.094;7.030;2024-02-15T14:49:15;4.15;;;1.88;;
22622;SDS011;11478;51.094;7.030;2024-02-15T14:51:45;7.18;;;2.10;;
22622;SDS011;11478;51.094;7.030;2024-02-15T14:54:12;5.78;;;1.80;;
22622;SDS011;11478;51.094;7.030;2024-02-15T14:56:42;3.75;;;1.88;;
22622;SDS011;11478;51.094;7.030;2024-02-15T14:59:10;24.95;;;8.05;;
22622;SDS011;11478;51.094;7.030;2024-02-15T15:01:41;4.65;;;1.75;;
22622;SDS011;11478;51.094;7.030;2024-02-15T15:04:11;7.05;;;1.95;;
22622;SDS011;11478;51.094;7.030;2024-02-15T15:06:38;7.70;;;1.75;;
22622;SDS011;11478;51.094;7.030;2024-02-15T15:09:23;7.20;;;1.85;;
22622;SDS011;11478;51.094;7.030;2024-02-15T15:12:08;6.93;;;1.77;;
22622;SDS011;11478;51.094;7.030;2024-02-15T15:14:52;4.05;;;1.55;;
22622;SDS011;11478;51.094;7.030;2024-02-15T15:17:20;5.22;;;1.83;;
22622;SDS011;11478;51.094;7.030;2024-02-15T15:19:46;5.53;;;1.65;;
22622;SDS011;11478;51.094;7.030;2024-02-15T15:22:20;6.18;;;1.83;;
22622;SDS011;11478;51.094;7.030;2024-02-15T15:24:46;5.22;;;1.40;;
22622;SDS011;11478;51.094;7.030;2024-02-15T15:27:12;5.50;;;1.80;;
22622;SDS011;11478;51.094;7.030;2024-02-15T15:29:47;6.35;;;1.77;;
22622;SDS011;11478;51.094;7.030;2024-02-15T15:32:15;6.25;;;2.17;;
22622;SDS011;11478;51.094;7.030;2024-02-15T15:34:50;8.80;;;2.00;;
22622;SDS011;11478;51.094;7.030;2024-02-15T15:37:16;5.43;;;1.73;;
22622;SDS011;11478;51.094;7.030;2024-02-15T15:39:43;4.88;;;1.63;;
22622;SDS011;11478;51.094;7.030;2024-02-15T15:42:10;5.10;;;1.80;;
22622;SDS011;11478;51.094;7.030;2024-02-15T15:44:40;4.65;;;1.50;;